Pine City, MN

12:45 PM CDT on August 27, 2014 (GMT -0500)
Hinckley | Change Station
CLOSE
Current Station
Airport
Location: Hinckley,
Elevation: 1020 ft
Nearby Weather Stations

Elev 1020 ft 46.02 °N, 92.90 °W | Updated 5 minutes ago

Mostly Cloudy
Mostly Cloudy
68 °F
Feels Like 68 °F
N
0
Wind Variable Wind from North

Today
High -- | Low -- °F
--% Chance of Precip.
Yesterday
High -- | Low -- °F
Precip. -- in
6:26 AM 7:59 PM
Waxing Crescent, 4% visible
Pressure 30.23 in
Visibility 10.0 miles
Clouds Mostly Cloudy 4400 ft
Dew Point 52 °F
Humidity 56%
Rainfall 0.05 in
Snow Depth Not available.
UV 5 out of 12
Pollen 8.40 out of 12
Air Quality Not available.
Flu Activity Not available.
METAR K04W 271740Z AUTO 00000KT 10SM BKN044 20/11 A3023 RMK AO2

More Conditions Fewer Conditions

Pressure 30.23 in
Visibility 10.0 miles
Clouds Mostly Cloudy 4400 ft
Dew Point 52 °F
Humidity 56%
Rainfall 0.05 in
Snow Depth Not available.
UV 5 out of 12
Pollen 8.40 out of 12
Air Quality Not available.
Flu Activity Not available.
METAR K04W 271740Z AUTO 00000KT 10SM BKN044 20/11 A3023 RMK AO2

More Conditions Fewer Conditions

10-Day Weather Forecast

Almanac

Astronomy

Aug. 27, 2014 Rise Set
Actual Time 6:26 AM CDT 7:59 PM CDT
Civil Twilight 5:55 AM CDT 8:30 PM CDT
Nautical Twilight 5:17 AM CDT 9:08 PM CDT
Astronomical Twilight 4:36 AM CDT 9:48 PM CDT
Moon 8:31 AM CDT 8:41 PM CDT
Length of Visible Light 14h 34m
Length of Day
13h 32m
Tomorrow will be 3m 4s shorter.
Waxing Crescent, 4% of the Moon is Illuminated
Today
Waxing Crescent
Sep 2
First Quarter
Sep 8
Full
Sep 15
Last Quarter
Sep 24
New

Today's Extremes

State Highs State Lows

Community

WunderPhotos

Upload Photos

1,747,736 photos uploaded!

Nearby

Snow Depth

Station Depth Elevation
No new snow has been reported.

Earthquake Activity

City Distance Mag. Time & Date
No recent earthquake activity has been reported nearby.
Minimum magnitude displayed is 2.5.

Coastal Water Temperatures

Place Temperature
No Stations Reporting

Nearby Weather Stations